CheckWX is a tool to help pilots better visualize weather data.  It is not intended as a substitute for an official pre-flight weather briefing.

07:24:24 UTC

KMUT METAR
Muscatine Municipal Airport
Muscatine, Iowa, USA
Current

9 mins ago

KMUT 230715Z AUTO 10009KT 4SM BR OVC019 02/M00 A3007 RMK AO2
Observed
Feb-23 @ 07:15 UTC
Wind
  • 100° at 9 KTS
Visibility
4 SM
Flight Rules
MVFR
Conditions
Mist
Cloud Levels
  • Overcast at 1,900' AGL
Temperature
C / 36°F
Dewpoint
C / 32°F
Humidity
87%
Altimeter
30.07" Hg
Pressure
1018.32 hPa
Previous

29 mins ago

KMUT 230655Z AUTO 10004KT 3SM -UP OVC021 02/M00 A3008 RMK AO2
Observed
Feb-23 @ 06:55 UTC
Wind
  • 100° at 4 KTS
Visibility
3 SM
Flight Rules
MVFR
Conditions
Unknown precipitation
Cloud Levels
  • Overcast at 2,100' AGL
Temperature
C / 36°F
Dewpoint
C / 32°F
Humidity
87%
Altimeter
30.08" Hg
Pressure
1018.62 hPa
Previous

49 mins ago

KMUT 230635Z AUTO 12008KT 4SM -UP OVC023 02/M00 A3010 RMK AO2
Observed
Feb-23 @ 06:35 UTC
Wind
  • 120° at 8 KTS
Visibility
4 SM
Flight Rules
MVFR
Conditions
Unknown precipitation
Cloud Levels
  • Overcast at 2,300' AGL
Temperature
C / 36°F
Dewpoint
C / 32°F
Humidity
87%
Altimeter
30.1" Hg
Pressure
1019.32 hPa